CheckWX is a tool to help pilots better visualize weather data.  It is not intended as a substitute for an official pre-flight weather briefing.

21:55:20 UTC

CYYT METAR
St. John's International Airport
St. John's, Canada
Current

14 mins ago

CYYT 162141Z 30008KT 6SM BR OVC002 11/11 A2994 RMK SF8 VIS LWR W-NW SLP142
Observed
Oct-16 @ 21:41 UTC
Wind
  • 300° at 8 KTS
Visibility
6 SM
Flight Rules
LIFR
Conditions
Mist
Cloud Levels
  • Overcast at 200' AGL
Temperature
11°C / 52°F
Dewpoint
11°C / 52°F
Humidity
100%
Altimeter
29.94" Hg
Pressure
1013.92 hPa
Previous

51 mins ago

CYYT 162104Z 30011KT 12SM OVC004 11/11 A2993 RMK SF8 SLP140
Observed
Oct-16 @ 21:04 UTC
Wind
  • 300° at 11 KTS
Visibility
12 SM
Flight Rules
LIFR
Cloud Levels
  • Overcast at 400' AGL
Temperature
11°C / 52°F
Dewpoint
11°C / 52°F
Humidity
100%
Altimeter
29.93" Hg
Pressure
1013.52 hPa
Previous

2 hours ago

CYYT 162020Z 29009KT 10SM OVC005 12/11 A2991 RMK SF8 SLP134
Observed
Oct-16 @ 20:20 UTC
Wind
  • 290° at 9 KTS
Visibility
10 SM
Flight Rules
IFR
Cloud Levels
  • Overcast at 500' AGL
Temperature
12°C / 54°F
Dewpoint
11°C / 52°F
Humidity
94%
Altimeter
29.91" Hg
Pressure
1012.92 hPa